sensor_id;sensor_type;location;lat;lon;timestamp;pressure;altitude;pressure_sealevel;temperature;humidity
46944;BME280;32678;43.852;25.952;2023-09-18T00:01:58;101719.81;;;23.08;57.08
46944;BME280;32678;43.852;25.952;2023-09-18T00:06:55;101715.97;;;23.00;57.17
46944;BME280;32678;43.852;25.952;2023-09-18T00:11:52;101711.78;;;22.96;56.86
46944;BME280;32678;43.852;25.952;2023-09-18T00:16:49;101703.75;;;22.70;57.55
46944;BME280;32678;43.852;25.952;2023-09-18T00:21:55;101704.50;;;22.72;57.58
46944;BME280;32678;43.852;25.952;2023-09-18T00:26:52;101710.88;;;22.57;58.03
46944;BME280;32678;43.852;25.952;2023-09-18T00:31:49;101708.91;;;22.46;58.35
46944;BME280;32678;43.852;25.952;2023-09-18T00:36:46;101712.94;;;22.39;58.61
46944;BME280;32678;43.852;25.952;2023-09-18T00:41:42;101703.22;;;22.38;58.93
46944;BME280;32678;43.852;25.952;2023-09-18T00:46:39;101709.63;;;22.23;59.48
46944;BME280;32678;43.852;25.952;2023-09-18T00:51:39;101708.84;;;22.21;59.46
46944;BME280;32678;43.852;25.952;2023-09-18T00:56:36;101706.72;;;22.26;59.49
46944;BME280;32678;43.852;25.952;2023-09-18T01:01:33;101701.94;;;22.31;59.39
46944;BME280;32678;43.852;25.952;2023-09-18T01:06:30;101707.81;;;22.36;58.98
46944;BME280;32678;43.852;25.952;2023-09-18T01:11:30;101712.84;;;22.28;59.13
46944;BME280;32678;43.852;25.952;2023-09-18T01:16:30;101708.63;;;22.24;59.47
46944;BME280;32678;43.852;25.952;2023-09-18T01:21:28;101707.50;;;22.28;59.10
46944;BME280;32678;43.852;25.952;2023-09-18T01:26:26;101694.13;;;22.28;58.96
46944;BME280;32678;43.852;25.952;2023-09-18T01:31:23;101696.19;;;22.11;59.48
46944;BME280;32678;43.852;25.952;2023-09-18T01:36:19;101697.59;;;22.03;59.94
46944;BME280;32678;43.852;25.952;2023-09-18T01:41:16;101694.44;;;21.97;60.33
46944;BME280;32678;43.852;25.952;2023-09-18T01:46:14;101696.22;;;21.70;61.03
46944;BME280;32678;43.852;25.952;2023-09-18T01:51:13;101697.03;;;21.84;60.92
46944;BME280;32678;43.852;25.952;2023-09-18T01:56:09;101703.34;;;21.83;60.70
46944;BME280;32678;43.852;25.952;2023-09-18T02:01:08;101704.31;;;21.68;60.90
46944;BME280;32678;43.852;25.952;2023-09-18T02:06:08;101704.34;;;21.54;61.60
46944;BME280;32678;43.852;25.952;2023-09-18T02:11:05;101717.41;;;21.58;61.28
46944;BME280;32678;43.852;25.952;2023-09-18T02:16:02;101711.66;;;21.50;61.51
46944;BME280;32678;43.852;25.952;2023-09-18T02:20:59;101712.16;;;21.00;63.01
46944;BME280;32678;43.852;25.952;2023-09-18T02:25:56;101716.69;;;20.84;63.84
46944;BME280;32678;43.852;25.952;2023-09-18T02:30:53;101718.22;;;20.88;63.79
46944;BME280;32678;43.852;25.952;2023-09-18T02:35:50;101722.00;;;20.84;64.04
46944;BME280;32678;43.852;25.952;2023-09-18T02:40:47;101732.66;;;20.70;64.63
46944;BME280;32678;43.852;25.952;2023-09-18T02:45:44;101735.75;;;20.62;64.96
46944;BME280;32678;43.852;25.952;2023-09-18T02:50:41;101729.75;;;20.59;65.34
46944;BME280;32678;43.852;25.952;2023-09-18T02:55:38;101734.63;;;20.96;64.54
46944;BME280;32678;43.852;25.952;2023-09-18T03:00:40;101737.94;;;21.00;63.53
46944;BME280;32678;43.852;25.952;2023-09-18T03:05:41;101739.63;;;20.87;63.91
46944;BME280;32678;43.852;25.952;2023-09-18T03:10:38;101743.72;;;20.92;63.81
46944;BME280;32678;43.852;25.952;2023-09-18T03:15:36;101744.78;;;20.90;63.83
46944;BME280;32678;43.852;25.952;2023-09-18T03:20:33;101752.44;;;21.10;62.98
46944;BME280;32678;43.852;25.952;2023-09-18T03:25:30;101750.75;;;21.23;62.18
46944;BME280;32678;43.852;25.952;2023-09-18T03:30:49;101756.13;;;21.07;62.37
46944;BME280;32678;43.852;25.952;2023-09-18T03:35:49;101751.56;;;21.09;62.26
46944;BME280;32678;43.852;25.952;2023-09-18T03:40:51;101759.56;;;21.09;62.17
46944;BME280;32678;43.852;25.952;2023-09-18T03:45:48;101760.53;;;21.08;62.48
46944;BME280;32678;43.852;25.952;2023-09-18T03:50:47;101758.63;;;21.10;62.27
46944;BME280;32678;43.852;25.952;2023-09-18T03:55:44;101772.94;;;20.80;63.39
46944;BME280;32678;43.852;25.952;2023-09-18T04:00:42;101772.66;;;20.54;64.43
46944;BME280;32678;43.852;25.952;2023-09-18T04:05:39;101778.25;;;20.50;64.88
46944;BME280;32678;43.852;25.952;2023-09-18T04:10:36;101786.34;;;20.48;65.14
46944;BME280;32678;43.852;25.952;2023-09-18T04:15:33;101783.53;;;20.36;65.59
46944;BME280;32678;43.852;25.952;2023-09-18T04:20:34;101777.50;;;20.16;66.72
46944;BME280;32678;43.852;25.952;2023-09-18T04:25:31;101773.78;;;20.19;66.25
46944;BME280;32678;43.852;25.952;2023-09-18T04:30:28;101776.22;;;20.39;65.52
46944;BME280;32678;43.852;25.952;2023-09-18T04:35:25;101781.53;;;20.39;65.79
46944;BME280;32678;43.852;25.952;2023-09-18T04:40:25;101780.31;;;20.45;65.68
46944;BME280;32678;43.852;25.952;2023-09-18T04:45:22;101790.97;;;20.45;66.16
46944;BME280;32678;43.852;25.952;2023-09-18T04:50:19;101794.06;;;20.06;68.44
46944;BME280;32678;43.852;25.952;2023-09-18T04:55:16;101793.22;;;20.05;68.81
46944;BME280;32678;43.852;25.952;2023-09-18T05:00:14;101789.22;;;19.65;70.05
46944;BME280;32678;43.852;25.952;2023-09-18T05:05:15;101791.88;;;19.50;71.11
46944;BME280;32678;43.852;25.952;2023-09-18T05:10:12;101793.53;;;19.68;70.78
46944;BME280;32678;43.852;25.952;2023-09-18T05:15:09;101795.41;;;19.66;70.90
46944;BME280;32678;43.852;25.952;2023-09-18T05:20:07;101795.28;;;19.52;71.51
46944;BME280;32678;43.852;25.952;2023-09-18T05:25:06;101796.03;;;19.71;70.85
46944;BME280;32678;43.852;25.952;2023-09-18T05:30:03;101790.97;;;19.82;70.70
46944;BME280;32678;43.852;25.952;2023-09-18T05:35:01;101792.00;;;19.95;69.88
46944;BME280;32678;43.852;25.952;2023-09-18T05:40:03;101791.75;;;20.00;70.50
46944;BME280;32678;43.852;25.952;2023-09-18T05:45:01;101803.34;;;20.30;69.08
46944;BME280;32678;43.852;25.952;2023-09-18T05:49:58;101795.19;;;20.17;68.80
46944;BME280;32678;43.852;25.952;2023-09-18T05:54:54;101810.75;;;20.41;68.20
46944;BME280;32678;43.852;25.952;2023-09-18T05:59:52;101808.78;;;20.13;69.14
46944;BME280;32678;43.852;25.952;2023-09-18T06:04:53;101810.72;;;20.09;69.20
46944;BME280;32678;43.852;25.952;2023-09-18T06:09:50;101815.03;;;20.12;69.57
46944;BME280;32678;43.852;25.952;2023-09-18T06:14:47;101819.09;;;20.50;68.23
46944;BME280;32678;43.852;25.952;2023-09-18T06:19:45;101815.69;;;20.62;67.69
46944;BME280;32678;43.852;25.952;2023-09-18T06:24:41;101814.88;;;20.30;69.67
46944;BME280;32678;43.852;25.952;2023-09-18T06:29:38;101818.34;;;20.33;69.26
46944;BME280;32678;43.852;25.952;2023-09-18T06:34:35;101821.97;;;20.14;70.59
46944;BME280;32678;43.852;25.952;2023-09-18T06:39:32;101819.78;;;20.38;70.79
46944;BME280;32678;43.852;25.952;2023-09-18T06:44:29;101821.63;;;20.67;69.96
46944;BME280;32678;43.852;25.952;2023-09-18T06:49:26;101820.00;;;20.65;69.39
46944;BME280;32678;43.852;25.952;2023-09-18T06:54:33;101814.09;;;20.90;70.28
46944;BME280;32678;43.852;25.952;2023-09-18T06:59:32;101817.97;;;20.84;71.32
46944;BME280;32678;43.852;25.952;2023-09-18T07:04:31;101808.50;;;21.08;71.26
46944;BME280;32678;43.852;25.952;2023-09-18T07:09:27;101824.75;;;20.44;73.04
46944;BME280;32678;43.852;25.952;2023-09-18T07:14:25;101820.63;;;20.54;73.13
46944;BME280;32678;43.852;25.952;2023-09-18T07:19:24;101823.13;;;20.42;73.77
46944;BME280;32678;43.852;25.952;2023-09-18T07:24:22;101824.59;;;20.47;73.78
46944;BME280;32678;43.852;25.952;2023-09-18T07:29:18;101817.63;;;20.45;74.33
46944;BME280;32678;43.852;25.952;2023-09-18T07:34:16;101822.53;;;20.82;73.00
46944;BME280;32678;43.852;25.952;2023-09-18T07:39:13;101820.56;;;21.15;69.97
46944;BME280;32678;43.852;25.952;2023-09-18T07:44:10;101815.75;;;21.06;70.68
46944;BME280;32678;43.852;25.952;2023-09-18T07:49:07;101821.00;;;21.08;72.34
46944;BME280;32678;43.852;25.952;2023-09-18T07:54:06;101821.53;;;21.14;71.99
46944;BME280;32678;43.852;25.952;2023-09-18T07:59:03;101832.50;;;21.24;68.03
46944;BME280;32678;43.852;25.952;2023-09-18T08:04:04;101826.81;;;21.58;68.11
46944;BME280;32678;43.852;25.952;2023-09-18T08:09:03;101822.13;;;21.62;64.85
46944;BME280;32678;43.852;25.952;2023-09-18T08:14:01;101818.41;;;21.79;64.33
46944;BME280;32678;43.852;25.952;2023-09-18T08:19:00;101813.94;;;21.79;64.39
46944;BME280;32678;43.852;25.952;2023-09-18T08:23:57;101813.84;;;21.95;62.87
46944;BME280;32678;43.852;25.952;2023-09-18T08:28:53;101811.78;;;22.27;61.19
46944;BME280;32678;43.852;25.952;2023-09-18T08:33:51;101805.19;;;22.32;60.27
46944;BME280;32678;43.852;25.952;2023-09-18T08:38:51;101802.81;;;22.28;58.84
46944;BME280;32678;43.852;25.952;2023-09-18T08:43:48;101798.38;;;22.41;58.59
46944;BME280;32678;43.852;25.952;2023-09-18T08:48:45;101796.03;;;22.49;58.21
46944;BME280;32678;43.852;25.952;2023-09-18T08:53:43;101788.13;;;22.74;58.18
46944;BME280;32678;43.852;25.952;2023-09-18T08:58:40;101785.19;;;22.65;59.08
46944;BME280;32678;43.852;25.952;2023-09-18T09:03:38;101781.44;;;22.94;57.00
46944;BME280;32678;43.852;25.952;2023-09-18T09:08:35;101787.97;;;23.28;56.05
46944;BME280;32678;43.852;25.952;2023-09-18T09:13:33;101756.94;;;23.25;56.75
46944;BME280;32678;43.852;25.952;2023-09-18T09:18:48;101769.13;;;23.42;55.97
46944;BME280;32678;43.852;25.952;2023-09-18T09:23:47;101756.00;;;23.01;55.79
46944;BME280;32678;43.852;25.952;2023-09-18T09:28:47;101768.16;;;22.93;55.39
46944;BME280;32678;43.852;25.952;2023-09-18T09:33:49;101754.25;;;23.13;54.82
46944;BME280;32678;43.852;25.952;2023-09-18T09:38:46;101744.31;;;23.15;56.65
46944;BME280;32678;43.852;25.952;2023-09-18T09:43:43;101747.19;;;23.12;54.35
46944;BME280;32678;43.852;25.952;2023-09-18T09:48:42;101738.63;;;23.32;53.70
46944;BME280;32678;43.852;25.952;2023-09-18T09:53:55;101738.53;;;23.46;53.22
46944;BME280;32678;43.852;25.952;2023-09-18T09:59:02;101726.44;;;23.28;52.50
46944;BME280;32678;43.852;25.952;2023-09-18T10:04:01;101724.91;;;23.62;52.78
46944;BME280;32678;43.852;25.952;2023-09-18T10:09:00;101719.69;;;23.48;52.10
46944;BME280;32678;43.852;25.952;2023-09-18T10:13:58;101714.19;;;23.74;51.22
46944;BME280;32678;43.852;25.952;2023-09-18T10:18:56;101714.44;;;23.59;51.30
46944;BME280;32678;43.852;25.952;2023-09-18T10:23:59;101696.69;;;24.05;51.46
46944;BME280;32678;43.852;25.952;2023-09-18T10:29:01;101699.97;;;24.22;50.79
46944;BME280;32678;43.852;25.952;2023-09-18T10:34:01;101691.28;;;23.94;52.50
46944;BME280;32678;43.852;25.952;2023-09-18T10:39:00;101695.78;;;23.94;53.12
46944;BME280;32678;43.852;25.952;2023-09-18T10:43:57;101686.81;;;23.82;52.02
46944;BME280;32678;43.852;25.952;2023-09-18T10:48:54;101682.88;;;23.75;50.86
46944;BME280;32678;43.852;25.952;2023-09-18T10:53:52;101669.50;;;23.99;50.68
46944;BME280;32678;43.852;25.952;2023-09-18T10:58:56;101674.91;;;23.86;49.76
46944;BME280;32678;43.852;25.952;2023-09-18T11:03:57;101665.19;;;24.09;49.13
46944;BME280;32678;43.852;25.952;2023-09-18T11:08:59;101652.13;;;24.39;47.29
46944;BME280;32678;43.852;25.952;2023-09-18T11:13:58;101655.03;;;24.71;45.41
46944;BME280;32678;43.852;25.952;2023-09-18T11:19:04;101653.19;;;24.60;44.72
46944;BME280;32678;43.852;25.952;2023-09-18T11:24:02;101644.13;;;24.50;44.85
46944;BME280;32678;43.852;25.952;2023-09-18T11:29:00;101649.66;;;24.71;43.88
46944;BME280;32678;43.852;25.952;2023-09-18T11:34:00;101645.56;;;24.89;43.59
46944;BME280;32678;43.852;25.952;2023-09-18T11:39:07;101651.50;;;24.82;42.64
46944;BME280;32678;43.852;25.952;2023-09-18T11:49:21;101634.31;;;24.84;44.23
46944;BME280;32678;43.852;25.952;2023-09-18T11:54:18;101631.03;;;25.03;41.52
46944;BME280;32678;43.852;25.952;2023-09-18T11:59:15;101626.16;;;25.19;42.73
46944;BME280;32678;43.852;25.952;2023-09-18T12:04:15;101631.00;;;25.48;41.27
46944;BME280;32678;43.852;25.952;2023-09-18T12:09:12;101625.19;;;25.31;43.45
46944;BME280;32678;43.852;25.952;2023-09-18T12:14:09;101618.25;;;25.07;44.02
46944;BME280;32678;43.852;25.952;2023-09-18T12:19:06;101610.81;;;25.10;44.17
46944;BME280;32678;43.852;25.952;2023-09-18T12:24:03;101605.56;;;24.97;44.10
46944;BME280;32678;43.852;25.952;2023-09-18T12:29:01;101596.44;;;25.00;43.87
46944;BME280;32678;43.852;25.952;2023-09-18T12:33:58;101595.69;;;25.20;43.24
46944;BME280;32678;43.852;25.952;2023-09-18T12:38:56;101597.63;;;25.18;42.50
46944;BME280;32678;43.852;25.952;2023-09-18T12:43:53;101588.34;;;25.22;42.08
46944;BME280;32678;43.852;25.952;2023-09-18T12:48:51;101585.53;;;25.35;42.74
46944;BME280;32678;43.852;25.952;2023-09-18T12:53:47;101579.66;;;25.41;42.83
46944;BME280;32678;43.852;25.952;2023-09-18T12:58:44;101570.97;;;25.49;42.35
46944;BME280;32678;43.852;25.952;2023-09-18T13:04:01;101566.59;;;25.36;42.48
46944;BME280;32678;43.852;25.952;2023-09-18T13:09:17;101551.19;;;25.50;42.28
46944;BME280;32678;43.852;25.952;2023-09-18T13:14:15;101548.59;;;25.91;41.69
46944;BME280;32678;43.852;25.952;2023-09-18T13:19:12;101535.09;;;26.02;39.35
46944;BME280;32678;43.852;25.952;2023-09-18T13:24:23;101543.06;;;25.72;40.78
46944;BME280;32678;43.852;25.952;2023-09-18T13:29:20;101532.94;;;25.96;42.82
46944;BME280;32678;43.852;25.952;2023-09-18T13:34:17;101531.03;;;25.87;41.17
46944;BME280;32678;43.852;25.952;2023-09-18T13:39:14;101520.75;;;25.92;41.61
46944;BME280;32678;43.852;25.952;2023-09-18T13:44:13;101522.56;;;25.92;40.03
46944;BME280;32678;43.852;25.952;2023-09-18T13:49:10;101524.81;;;26.07;40.23
46944;BME280;32678;43.852;25.952;2023-09-18T13:54:07;101523.94;;;26.07;40.38
46944;BME280;32678;43.852;25.952;2023-09-18T13:59:04;101517.25;;;26.01;40.86
46944;BME280;32678;43.852;25.952;2023-09-18T14:04:01;101515.50;;;26.11;41.78
46944;BME280;32678;43.852;25.952;2023-09-18T14:08:58;101511.53;;;25.85;41.06
46944;BME280;32678;43.852;25.952;2023-09-18T14:13:58;101508.75;;;25.75;41.25
46944;BME280;32678;43.852;25.952;2023-09-18T14:18:54;101504.97;;;25.99;39.62
46944;BME280;32678;43.852;25.952;2023-09-18T14:23:51;101493.88;;;26.13;39.53
46944;BME280;32678;43.852;25.952;2023-09-18T14:28:48;101496.63;;;26.02;39.66
46944;BME280;32678;43.852;25.952;2023-09-18T14:33:45;101491.31;;;26.11;39.45
46944;BME280;32678;43.852;25.952;2023-09-18T14:38:42;101495.06;;;25.99;39.63
46944;BME280;32678;43.852;25.952;2023-09-18T14:43:39;101485.75;;;26.03;39.71
46944;BME280;32678;43.852;25.952;2023-09-18T14:48:35;101487.81;;;25.90;40.47
46944;BME280;32678;43.852;25.952;2023-09-18T14:53:33;101475.97;;;26.02;40.03
46944;BME280;32678;43.852;25.952;2023-09-18T14:58:30;101459.06;;;25.91;41.00
46944;BME280;32678;43.852;25.952;2023-09-18T15:03:27;101465.84;;;26.15;40.88
46944;BME280;32678;43.852;25.952;2023-09-18T15:08:24;101469.28;;;25.97;39.92
46944;BME280;32678;43.852;25.952;2023-09-18T15:13:22;101478.16;;;25.87;40.20
46944;BME280;32678;43.852;25.952;2023-09-18T15:18:19;101477.47;;;26.16;40.48
46944;BME280;32678;43.852;25.952;2023-09-18T15:23:20;101474.66;;;26.17;40.73
46944;BME280;32678;43.852;25.952;2023-09-18T15:28:18;101470.78;;;26.10;41.08
46944;BME280;32678;43.852;25.952;2023-09-18T15:33:16;101465.69;;;26.07;42.03
46944;BME280;32678;43.852;25.952;2023-09-18T15:38:13;101465.34;;;26.01;42.34
46944;BME280;32678;43.852;25.952;2023-09-18T15:43:10;101465.75;;;25.96;43.16
46944;BME280;32678;43.852;25.952;2023-09-18T15:48:07;101464.25;;;25.82;43.26
46944;BME280;32678;43.852;25.952;2023-09-18T15:53:04;101462.19;;;25.65;43.05
46944;BME280;32678;43.852;25.952;2023-09-18T15:58:01;101456.72;;;25.76;43.24
46944;BME280;32678;43.852;25.952;2023-09-18T16:02:57;101453.28;;;25.54;44.55
46944;BME280;32678;43.852;25.952;2023-09-18T16:07:54;101454.19;;;25.43;43.54
46944;BME280;32678;43.852;25.952;2023-09-18T16:13:00;101454.66;;;25.48;43.44
46944;BME280;32678;43.852;25.952;2023-09-18T16:17:57;101449.13;;;25.29;42.96
46944;BME280;32678;43.852;25.952;2023-09-18T16:22:54;101453.63;;;25.28;42.74
46944;BME280;32678;43.852;25.952;2023-09-18T16:27:51;101455.16;;;25.21;42.91
46944;BME280;32678;43.852;25.952;2023-09-18T16:32:50;101449.59;;;25.34;41.70
46944;BME280;32678;43.852;25.952;2023-09-18T16:37:47;101452.59;;;25.20;41.02
46944;BME280;32678;43.852;25.952;2023-09-18T16:42:43;101465.88;;;25.21;41.09
46944;BME280;32678;43.852;25.952;2023-09-18T16:47:41;101467.34;;;25.14;41.42
46944;BME280;32678;43.852;25.952;2023-09-18T16:52:38;101473.97;;;24.99;41.93
46944;BME280;32678;43.852;25.952;2023-09-18T16:57:39;101480.56;;;25.06;41.33
46944;BME280;32678;43.852;25.952;2023-09-18T17:02:36;101479.13;;;25.02;41.35
46944;BME280;32678;43.852;25.952;2023-09-18T17:07:33;101490.56;;;24.93;40.94
46944;BME280;32678;43.852;25.952;2023-09-18T17:12:30;101497.06;;;24.90;40.85
46944;BME280;32678;43.852;25.952;2023-09-18T17:17:27;101497.41;;;24.97;40.17
46944;BME280;32678;43.852;25.952;2023-09-18T17:22:23;101501.16;;;24.83;39.93
46944;BME280;32678;43.852;25.952;2023-09-18T17:27:20;101500.94;;;24.75;39.67
46944;BME280;32678;43.852;25.952;2023-09-18T17:32:18;101508.13;;;24.75;39.43
46944;BME280;32678;43.852;25.952;2023-09-18T17:37:14;101500.56;;;24.69;39.54
46944;BME280;32678;43.852;25.952;2023-09-18T17:42:11;101506.41;;;24.74;38.86
46944;BME280;32678;43.852;25.952;2023-09-18T17:47:08;101514.84;;;24.69;38.69
46944;BME280;32678;43.852;25.952;2023-09-18T17:52:05;101520.94;;;24.71;38.96
46944;BME280;32678;43.852;25.952;2023-09-18T17:57:05;101515.69;;;24.70;38.87
46944;BME280;32678;43.852;25.952;2023-09-18T18:02:02;101527.50;;;24.78;38.69
46944;BME280;32678;43.852;25.952;2023-09-18T18:07:00;101522.28;;;24.88;38.31
46944;BME280;32678;43.852;25.952;2023-09-18T18:11:58;101525.19;;;24.85;38.12
46944;BME280;32678;43.852;25.952;2023-09-18T18:16:54;101527.28;;;24.81;38.06
46944;BME280;32678;43.852;25.952;2023-09-18T18:21:52;101524.81;;;24.78;38.20
46944;BME280;32678;43.852;25.952;2023-09-18T18:26:49;101529.97;;;24.81;38.17
46944;BME280;32678;43.852;25.952;2023-09-18T18:31:48;101535.44;;;24.80;38.12
46944;BME280;32678;43.852;25.952;2023-09-18T18:36:47;101534.34;;;24.60;38.22
46944;BME280;32678;43.852;25.952;2023-09-18T18:41:44;101537.59;;;24.30;38.43
46944;BME280;32678;43.852;25.952;2023-09-18T18:46:40;101537.50;;;24.32;38.67
46944;BME280;32678;43.852;25.952;2023-09-18T18:51:38;101539.81;;;24.36;38.31
46944;BME280;32678;43.852;25.952;2023-09-18T18:56:35;101541.41;;;24.28;38.37
46944;BME280;32678;43.852;25.952;2023-09-18T19:01:32;101544.97;;;24.15;38.66
46944;BME280;32678;43.852;25.952;2023-09-18T19:06:29;101544.44;;;24.23;38.76
46944;BME280;32678;43.852;25.952;2023-09-18T19:11:30;101548.19;;;24.21;38.73
46944;BME280;32678;43.852;25.952;2023-09-18T19:16:28;101548.34;;;23.95;39.47
46944;BME280;32678;43.852;25.952;2023-09-18T19:21:24;101552.50;;;23.64;40.10
46944;BME280;32678;43.852;25.952;2023-09-18T19:26:21;101555.59;;;23.82;39.95
46944;BME280;32678;43.852;25.952;2023-09-18T19:31:19;101563.59;;;23.71;40.50
46944;BME280;32678;43.852;25.952;2023-09-18T19:36:16;101571.06;;;23.79;40.62
46944;BME280;32678;43.852;25.952;2023-09-18T19:41:13;101582.13;;;23.74;41.10
46944;BME280;32678;43.852;25.952;2023-09-18T19:46:10;101574.13;;;23.61;41.69
46944;BME280;32678;43.852;25.952;2023-09-18T19:51:09;101584.66;;;23.52;42.08
46944;BME280;32678;43.852;25.952;2023-09-18T19:56:06;101576.06;;;23.23;43.15
46944;BME280;32678;43.852;25.952;2023-09-18T20:01:02;101576.38;;;23.31;43.65
46944;BME280;32678;43.852;25.952;2023-09-18T20:05:59;101583.28;;;23.10;44.70
46944;BME280;32678;43.852;25.952;2023-09-18T20:11:05;101587.09;;;23.18;44.80
46944;BME280;32678;43.852;25.952;2023-09-18T20:16:02;101582.34;;;23.35;45.25
46944;BME280;32678;43.852;25.952;2023-09-18T20:21:00;101593.88;;;23.11;45.79
46944;BME280;32678;43.852;25.952;2023-09-18T20:25:57;101588.66;;;22.97;46.57
46944;BME280;32678;43.852;25.952;2023-09-18T20:30:57;101596.91;;;22.56;48.10
46944;BME280;32678;43.852;25.952;2023-09-18T20:35:56;101592.06;;;22.23;49.52
46944;BME280;32678;43.852;25.952;2023-09-18T20:40:53;101584.47;;;22.17;50.05
46944;BME280;32678;43.852;25.952;2023-09-18T20:45:50;101573.72;;;21.92;51.08
46944;BME280;32678;43.852;25.952;2023-09-18T20:50:47;101575.28;;;21.82;52.12
46944;BME280;32678;43.852;25.952;2023-09-18T20:55:44;101567.59;;;21.77;52.60
46944;BME280;32678;43.852;25.952;2023-09-18T21:00:42;101568.84;;;21.72;53.17
46944;BME280;32678;43.852;25.952;2023-09-18T21:05:39;101568.34;;;21.52;54.06
46944;BME280;32678;43.852;25.952;2023-09-18T21:10:36;101564.72;;;21.53;54.37
46944;BME280;32678;43.852;25.952;2023-09-18T21:15:33;101573.38;;;21.30;55.13
46944;BME280;32678;43.852;25.952;2023-09-18T21:20:30;101568.66;;;21.48;54.91
46944;BME280;32678;43.852;25.952;2023-09-18T21:25:27;101566.97;;;21.33;55.40
46944;BME280;32678;43.852;25.952;2023-09-18T21:30:24;101555.38;;;21.34;55.66
46944;BME280;32678;43.852;25.952;2023-09-18T21:35:22;101544.88;;;21.31;55.88
46944;BME280;32678;43.852;25.952;2023-09-18T21:40:19;101551.03;;;21.04;57.03
46944;BME280;32678;43.852;25.952;2023-09-18T21:45:15;101554.94;;;20.99;57.26
46944;BME280;32678;43.852;25.952;2023-09-18T21:50:12;101550.53;;;20.98;57.56
46944;BME280;32678;43.852;25.952;2023-09-18T21:55:10;101550.84;;;20.79;58.45
46944;BME280;32678;43.852;25.952;2023-09-18T22:00:07;101542.66;;;20.68;58.84
46944;BME280;32678;43.852;25.952;2023-09-18T22:05:09;101553.72;;;20.90;58.67
46944;BME280;32678;43.852;25.952;2023-09-18T22:10:07;101540.78;;;20.70;59.55
46944;BME280;32678;43.852;25.952;2023-09-18T22:15:04;101531.28;;;20.52;60.21
46944;BME280;32678;43.852;25.952;2023-09-18T22:20:10;101531.84;;;20.57;60.22
46944;BME280;32678;43.852;25.952;2023-09-18T22:25:09;101541.16;;;20.64;60.05
46944;BME280;32678;43.852;25.952;2023-09-18T22:30:06;101538.41;;;20.65;59.87
46944;BME280;32678;43.852;25.952;2023-09-18T22:35:03;101534.94;;;20.92;59.21
46944;BME280;32678;43.852;25.952;2023-09-18T22:55:31;101514.59;;;20.62;60.23
46944;BME280;32678;43.852;25.952;2023-09-18T23:00:30;101516.59;;;20.73;59.43
46944;BME280;32678;43.852;25.952;2023-09-18T23:05:28;101518.97;;;20.77;59.27
46944;BME280;32678;43.852;25.952;2023-09-18T23:10:26;101516.03;;;20.68;59.36
46944;BME280;32678;43.852;25.952;2023-09-18T23:15:23;101526.22;;;20.61;59.83
46944;BME280;32678;43.852;25.952;2023-09-18T23:20:20;101528.41;;;20.69;59.70
46944;BME280;32678;43.852;25.952;2023-09-18T23:25:20;101536.78;;;20.91;59.06
46944;BME280;32678;43.852;25.952;2023-09-18T23:30:17;101541.00;;;21.22;57.59
46944;BME280;32678;43.852;25.952;2023-09-18T23:35:15;101534.25;;;21.02;57.97
46944;BME280;32678;43.852;25.952;2023-09-18T23:40:12;101533.78;;;21.24;57.27
46944;BME280;32678;43.852;25.952;2023-09-18T23:45:10;101528.88;;;21.31;57.04
46944;BME280;32678;43.852;25.952;2023-09-18T23:50:07;101526.75;;;21.36;56.94
46944;BME280;32678;43.852;25.952;2023-09-18T23:55:05;101535.53;;;21.38;56.52
